sensor_id;sensor_type;location;lat;lon;timestamp;pressure;altitude;pressure_sealevel;temperature;humidity
55347;BME280;41218;55.700;38.270;2023-04-23T00:04:30;99602.69;;;4.15;47.97
55347;BME280;41218;55.700;38.270;2023-04-23T00:09:36;99600.34;;;4.05;48.06
55347;BME280;41218;55.700;38.270;2023-04-23T00:14:37;99610.00;;;4.02;48.38
55347;BME280;41218;55.700;38.270;2023-04-23T00:19:38;99606.97;;;3.95;48.32
55347;BME280;41218;55.700;38.270;2023-04-23T00:24:39;99615.38;;;3.90;48.35
55347;BME280;41218;55.700;38.270;2023-04-23T00:29:39;99617.16;;;3.86;48.48
55347;BME280;41218;55.700;38.270;2023-04-23T00:34:40;99634.22;;;3.83;48.44
55347;BME280;41218;55.700;38.270;2023-04-23T00:39:41;99627.31;;;3.76;48.38
55347;BME280;41218;55.700;38.270;2023-04-23T00:44:44;99631.03;;;3.72;48.83
55347;BME280;41218;55.700;38.270;2023-04-23T00:49:45;99635.09;;;3.66;48.64
55347;BME280;41218;55.700;38.270;2023-04-23T00:54:46;99635.25;;;3.60;48.64
55347;BME280;41218;55.700;38.270;2023-04-23T00:59:46;99645.22;;;3.56;48.45
55347;BME280;41218;55.700;38.270;2023-04-23T01:04:47;99633.53;;;3.47;48.97
55347;BME280;41218;55.700;38.270;2023-04-23T01:09:52;99643.50;;;3.43;49.00
55347;BME280;41218;55.700;38.270;2023-04-23T01:14:53;99643.81;;;3.41;49.14
55347;BME280;41218;55.700;38.270;2023-04-23T01:19:55;99654.59;;;3.38;48.95
55347;BME280;41218;55.700;38.270;2023-04-23T01:24:56;99643.38;;;3.31;49.35
55347;BME280;41218;55.700;38.270;2023-04-23T01:29:57;99644.78;;;3.28;49.37
55347;BME280;41218;55.700;38.270;2023-04-23T01:34:58;99646.56;;;3.24;49.45
55347;BME280;41218;55.700;38.270;2023-04-23T01:39:59;99648.03;;;3.21;49.58
55347;BME280;41218;55.700;38.270;2023-04-23T01:45:01;99648.22;;;3.16;49.92
55347;BME280;41218;55.700;38.270;2023-04-23T01:50:02;99653.03;;;3.11;50.06
55347;BME280;41218;55.700;38.270;2023-04-23T01:55:04;99650.75;;;3.04;50.15
55347;BME280;41218;55.700;38.270;2023-04-23T02:00:10;99650.63;;;3.00;50.41
55347;BME280;41218;55.700;38.270;2023-04-23T02:05:13;99652.53;;;2.91;50.21
55347;BME280;41218;55.700;38.270;2023-04-23T02:10:15;99658.47;;;2.93;49.97
55347;BME280;41218;55.700;38.270;2023-04-23T02:15:16;99668.13;;;2.91;50.09
55347;BME280;41218;55.700;38.270;2023-04-23T02:20:17;99666.84;;;2.88;50.04
55347;BME280;41218;55.700;38.270;2023-04-23T02:25:18;99672.13;;;2.85;50.19
55347;BME280;41218;55.700;38.270;2023-04-23T02:30:20;99666.00;;;2.79;50.32
55347;BME280;41218;55.700;38.270;2023-04-23T02:35:22;99676.13;;;2.78;50.38
55347;BME280;41218;55.700;38.270;2023-04-23T02:40:23;99683.84;;;2.76;50.57
55347;BME280;41218;55.700;38.270;2023-04-23T02:45:23;99679.66;;;2.70;51.02
55347;BME280;41218;55.700;38.270;2023-04-23T02:50:24;99685.13;;;2.70;50.98
55347;BME280;41218;55.700;38.270;2023-04-23T02:55:25;99689.78;;;2.70;50.50
55347;BME280;41218;55.700;38.270;2023-04-23T03:00:31;99697.78;;;2.66;50.69
55347;BME280;41218;55.700;38.270;2023-04-23T03:05:31;99697.63;;;2.71;51.31
55347;BME280;41218;55.700;38.270;2023-04-23T03:10:32;99706.94;;;2.70;51.04
55347;BME280;41218;55.700;38.270;2023-04-23T03:15:32;99706.16;;;2.70;51.14
55347;BME280;41218;55.700;38.270;2023-04-23T03:20:34;99708.53;;;2.71;50.91
55347;BME280;41218;55.700;38.270;2023-04-23T03:25:34;99714.97;;;2.75;50.95
55347;BME280;41218;55.700;38.270;2023-04-23T03:30:35;99722.53;;;2.78;51.25
55347;BME280;41218;55.700;38.270;2023-04-23T03:35:36;99715.63;;;2.72;51.30
55347;BME280;41218;55.700;38.270;2023-04-23T03:40:36;99733.78;;;2.86;51.76
55347;BME280;41218;55.700;38.270;2023-04-23T03:45:37;99738.78;;;2.92;52.37
55347;BME280;41218;55.700;38.270;2023-04-23T03:50:37;99735.56;;;2.99;52.86
55347;BME280;41218;55.700;38.270;2023-04-23T03:55:39;99747.16;;;3.05;53.72
55347;BME280;41218;55.700;38.270;2023-04-23T04:00:40;99747.16;;;3.13;54.04
55347;BME280;41218;55.700;38.270;2023-04-23T04:05:40;99751.34;;;3.28;54.42
55347;BME280;41218;55.700;38.270;2023-04-23T04:10:41;99744.44;;;3.39;55.02
55347;BME280;41218;55.700;38.270;2023-04-23T04:15:41;99753.13;;;3.59;55.27
55347;BME280;41218;55.700;38.270;2023-04-23T04:20:42;99757.91;;;3.79;55.72
55347;BME280;41218;55.700;38.270;2023-04-23T04:25:43;99760.13;;;4.04;56.21
55347;BME280;41218;55.700;38.270;2023-04-23T04:30:44;99758.44;;;4.29;55.72
55347;BME280;41218;55.700;38.270;2023-04-23T04:35:46;99763.78;;;4.55;56.01
55347;BME280;41218;55.700;38.270;2023-04-23T04:40:48;99762.84;;;4.80;55.98
55347;BME280;41218;55.700;38.270;2023-04-23T04:45:49;99766.72;;;5.09;56.39
55347;BME280;41218;55.700;38.270;2023-04-23T04:50:50;99763.56;;;5.40;56.74
55347;BME280;41218;55.700;38.270;2023-04-23T04:55:51;99769.34;;;5.81;56.49
55347;BME280;41218;55.700;38.270;2023-04-23T05:00:51;99779.34;;;6.19;56.35
55347;BME280;41218;55.700;38.270;2023-04-23T05:05:52;99780.53;;;6.55;56.58
55347;BME280;41218;55.700;38.270;2023-04-23T05:10:59;99786.94;;;7.08;56.09
55347;BME280;41218;55.700;38.270;2023-04-23T05:16:00;99786.03;;;7.57;55.17
55347;BME280;41218;55.700;38.270;2023-04-23T05:21:00;99789.38;;;8.07;54.84
55347;BME280;41218;55.700;38.270;2023-04-23T05:26:01;99786.38;;;8.56;53.55
55347;BME280;41218;55.700;38.270;2023-04-23T05:31:04;99798.84;;;9.17;53.20
55347;BME280;41218;55.700;38.270;2023-04-23T05:36:05;99795.84;;;9.61;51.82
55347;BME280;41218;55.700;38.270;2023-04-23T05:41:07;99797.53;;;10.05;51.66
55347;BME280;41218;55.700;38.270;2023-04-23T05:46:08;99798.22;;;10.40;50.76
55347;BME280;41218;55.700;38.270;2023-04-23T05:51:08;99799.94;;;10.72;50.22
55347;BME280;41218;55.700;38.270;2023-04-23T05:56:10;99812.31;;;11.05;49.65
55347;BME280;41218;55.700;38.270;2023-04-23T06:01:11;99815.47;;;11.30;49.14
55347;BME280;41218;55.700;38.270;2023-04-23T06:06:12;99819.69;;;11.50;48.55
55347;BME280;41218;55.700;38.270;2023-04-23T06:11:13;99823.81;;;11.63;47.85
55347;BME280;41218;55.700;38.270;2023-04-23T06:16:14;99829.22;;;11.83;47.71
55347;BME280;41218;55.700;38.270;2023-04-23T06:21:15;99823.59;;;12.06;46.88
55347;BME280;41218;55.700;38.270;2023-04-23T06:26:16;99825.88;;;12.34;45.88
55347;BME280;41218;55.700;38.270;2023-04-23T06:31:16;99831.75;;;12.67;45.58
55347;BME280;41218;55.700;38.270;2023-04-23T06:36:17;99831.16;;;12.88;44.49
55347;BME280;41218;55.700;38.270;2023-04-23T06:41:17;99830.53;;;13.12;43.78
55347;BME280;41218;55.700;38.270;2023-04-23T06:46:18;99836.66;;;13.36;43.23
55347;BME280;41218;55.700;38.270;2023-04-23T06:51:18;99836.41;;;13.55;42.78
55347;BME280;41218;55.700;38.270;2023-04-23T06:56:19;99826.22;;;13.77;42.16
55347;BME280;41218;55.700;38.270;2023-04-23T07:01:21;99829.94;;;14.14;41.45
55347;BME280;41218;55.700;38.270;2023-04-23T07:06:21;99835.97;;;14.45;40.95
55347;BME280;41218;55.700;38.270;2023-04-23T07:11:22;99838.00;;;14.69;40.51
55347;BME280;41218;55.700;38.270;2023-04-23T07:16:23;99826.50;;;14.89;39.98
55347;BME280;41218;55.700;38.270;2023-04-23T07:21:25;99835.66;;;14.96;39.42
55347;BME280;41218;55.700;38.270;2023-04-23T07:26:26;99847.97;;;15.02;39.47
55347;BME280;41218;55.700;38.270;2023-04-23T07:31:27;99848.38;;;15.12;39.00
55347;BME280;41218;55.700;38.270;2023-04-23T07:36:27;99840.78;;;15.27;38.80
55347;BME280;41218;55.700;38.270;2023-04-23T07:41:28;99841.56;;;15.41;38.37
55347;BME280;41218;55.700;38.270;2023-04-23T07:46:29;99843.97;;;15.43;38.50
55347;BME280;41218;55.700;38.270;2023-04-23T07:51:29;99848.72;;;15.42;38.08
55347;BME280;41218;55.700;38.270;2023-04-23T07:56:31;99850.72;;;15.42;37.79
55347;BME280;41218;55.700;38.270;2023-04-23T08:01:32;99849.50;;;15.47;37.67
55347;BME280;41218;55.700;38.270;2023-04-23T08:06:33;99847.94;;;15.49;37.59
55347;BME280;41218;55.700;38.270;2023-04-23T08:11:34;99847.91;;;15.63;37.35
55347;BME280;41218;55.700;38.270;2023-04-23T08:16:35;99848.28;;;15.73;37.17
55347;BME280;41218;55.700;38.270;2023-04-23T08:21:36;99853.84;;;15.84;36.72
55347;BME280;41218;55.700;38.270;2023-04-23T08:26:36;99851.41;;;15.93;36.81
55347;BME280;41218;55.700;38.270;2023-04-23T08:31:37;99852.97;;;16.08;36.53
55347;BME280;41218;55.700;38.270;2023-04-23T08:36:37;99846.13;;;16.20;36.23
55347;BME280;41218;55.700;38.270;2023-04-23T08:41:39;99848.47;;;16.32;35.60
55347;BME280;41218;55.700;38.270;2023-04-23T08:46:43;99842.81;;;16.39;35.85
55347;BME280;41218;55.700;38.270;2023-04-23T08:51:56;99827.66;;;16.44;35.15
55347;BME280;41218;55.700;38.270;2023-04-23T08:57:03;99826.38;;;16.59;35.25
55347;BME280;41218;55.700;38.270;2023-04-23T09:02:04;99828.66;;;16.75;35.28
55347;BME280;41218;55.700;38.270;2023-04-23T09:07:09;99816.63;;;16.89;34.88
55347;BME280;41218;55.700;38.270;2023-04-23T09:12:12;99819.94;;;17.18;34.21
55347;BME280;41218;55.700;38.270;2023-04-23T09:17:13;99812.03;;;17.48;34.54
55347;BME280;41218;55.700;38.270;2023-04-23T09:22:13;99801.19;;;17.57;33.76
55347;BME280;41218;55.700;38.270;2023-04-23T09:27:14;99811.66;;;17.87;34.06
55347;BME280;41218;55.700;38.270;2023-04-23T09:32:30;99819.25;;;17.87;32.38
55347;BME280;41218;55.700;38.270;2023-04-23T09:37:31;99811.78;;;17.73;32.55
55347;BME280;41218;55.700;38.270;2023-04-23T09:42:32;99805.22;;;17.52;32.66
55347;BME280;41218;55.700;38.270;2023-04-23T09:47:37;99801.50;;;17.66;33.03
55347;BME280;41218;55.700;38.270;2023-04-23T09:52:38;99808.41;;;17.54;32.58
55347;BME280;41218;55.700;38.270;2023-04-23T09:57:42;99801.19;;;17.57;31.75
55347;BME280;41218;55.700;38.270;2023-04-23T10:02:47;99803.22;;;17.53;31.95
55347;BME280;41218;55.700;38.270;2023-04-23T10:07:48;99789.41;;;17.38;32.03
55347;BME280;41218;55.700;38.270;2023-04-23T10:12:49;99791.16;;;17.59;32.50
55347;BME280;41218;55.700;38.270;2023-04-23T10:17:50;99788.53;;;17.79;32.31
55347;BME280;41218;55.700;38.270;2023-04-23T10:22:52;99791.66;;;17.89;31.23
55347;BME280;41218;55.700;38.270;2023-04-23T10:27:54;99789.47;;;18.04;31.34
55347;BME280;41218;55.700;38.270;2023-04-23T10:32:56;99789.63;;;18.20;31.00
55347;BME280;41218;55.700;38.270;2023-04-23T10:37:56;99797.03;;;18.34;31.32
55347;BME280;41218;55.700;38.270;2023-04-23T10:42:57;99798.19;;;18.36;30.76
55347;BME280;41218;55.700;38.270;2023-04-23T10:47:58;99778.56;;;18.40;30.80
55347;BME280;41218;55.700;38.270;2023-04-23T10:52:59;99783.38;;;18.63;31.14
55347;BME280;41218;55.700;38.270;2023-04-23T10:58:02;99773.75;;;18.68;30.45
55347;BME280;41218;55.700;38.270;2023-04-23T11:03:03;99763.63;;;18.74;30.34
55347;BME280;41218;55.700;38.270;2023-04-23T11:08:05;99772.19;;;18.90;30.38
55347;BME280;41218;55.700;38.270;2023-04-23T11:13:22;99764.38;;;18.78;29.46
55347;BME280;41218;55.700;38.270;2023-04-23T11:18:26;99764.25;;;18.85;30.25
55347;BME280;41218;55.700;38.270;2023-04-23T11:23:29;99755.19;;;19.01;29.98
55347;BME280;41218;55.700;38.270;2023-04-23T11:28:35;99755.34;;;18.94;29.09
55347;BME280;41218;55.700;38.270;2023-04-23T11:33:37;99758.13;;;18.94;29.35
55347;BME280;41218;55.700;38.270;2023-04-23T11:38:37;99766.41;;;19.01;29.01
55347;BME280;41218;55.700;38.270;2023-04-23T11:43:38;99763.59;;;19.01;28.87
55347;BME280;41218;55.700;38.270;2023-04-23T11:48:38;99762.75;;;19.04;29.11
55347;BME280;41218;55.700;38.270;2023-04-23T11:53:48;99757.59;;;19.23;29.04
55347;BME280;41218;55.700;38.270;2023-04-23T11:59:00;99757.66;;;19.19;28.99
55347;BME280;41218;55.700;38.270;2023-04-23T12:04:18;99745.88;;;19.28;29.08
55347;BME280;41218;55.700;38.270;2023-04-23T12:09:20;99740.22;;;19.31;28.52
55347;BME280;41218;55.700;38.270;2023-04-23T12:14:28;99741.25;;;19.41;28.45
55347;BME280;41218;55.700;38.270;2023-04-23T12:19:30;99742.38;;;19.44;28.16
55347;BME280;41218;55.700;38.270;2023-04-23T12:24:45;99740.72;;;19.46;27.90
55347;BME280;41218;55.700;38.270;2023-04-23T12:29:47;99731.97;;;19.44;28.21
55347;BME280;41218;55.700;38.270;2023-04-23T12:34:51;99727.38;;;19.54;27.94
55347;BME280;41218;55.700;38.270;2023-04-23T12:39:55;99724.69;;;19.67;27.89
55347;BME280;41218;55.700;38.270;2023-04-23T12:45:08;99716.16;;;19.74;27.89
55347;BME280;41218;55.700;38.270;2023-04-23T12:50:09;99718.94;;;19.94;28.36
55347;BME280;41218;55.700;38.270;2023-04-23T12:55:09;99728.19;;;19.91;28.00
55347;BME280;41218;55.700;38.270;2023-04-23T13:00:10;99719.19;;;19.83;28.16
55347;BME280;41218;55.700;38.270;2023-04-23T13:05:11;99714.00;;;19.81;27.66
55347;BME280;41218;55.700;38.270;2023-04-23T13:10:12;99709.69;;;19.77;27.51
55347;BME280;41218;55.700;38.270;2023-04-23T13:15:12;99714.72;;;19.86;27.20
55347;BME280;41218;55.700;38.270;2023-04-23T13:20:13;99710.16;;;19.92;27.18
55347;BME280;41218;55.700;38.270;2023-04-23T13:25:14;99715.69;;;19.95;27.45
55347;BME280;41218;55.700;38.270;2023-04-23T13:30:14;99701.31;;;19.93;27.15
55347;BME280;41218;55.700;38.270;2023-04-23T13:35:15;99708.25;;;20.05;27.30
55347;BME280;41218;55.700;38.270;2023-04-23T13:40:16;99707.88;;;20.03;26.81
55347;BME280;41218;55.700;38.270;2023-04-23T13:45:17;99703.53;;;20.02;26.63
55347;BME280;41218;55.700;38.270;2023-04-23T13:50:18;99710.53;;;20.10;26.90
55347;BME280;41218;55.700;38.270;2023-04-23T13:55:18;99711.41;;;20.07;26.66
55347;BME280;41218;55.700;38.270;2023-04-23T14:00:19;99713.50;;;20.03;26.74
55347;BME280;41218;55.700;38.270;2023-04-23T14:05:19;99697.00;;;19.89;26.60
55347;BME280;41218;55.700;38.270;2023-04-23T14:10:20;99709.16;;;19.82;26.82
55347;BME280;41218;55.700;38.270;2023-04-23T14:15:21;99710.13;;;19.75;26.62
55347;BME280;41218;55.700;38.270;2023-04-23T14:20:21;99710.66;;;19.67;26.75
55347;BME280;41218;55.700;38.270;2023-04-23T14:25:33;99709.59;;;19.60;26.50
55347;BME280;41218;55.700;38.270;2023-04-23T14:30:34;99712.97;;;19.52;26.76
55347;BME280;41218;55.700;38.270;2023-04-23T14:35:35;99701.94;;;19.45;26.65
55347;BME280;41218;55.700;38.270;2023-04-23T14:40:35;99694.09;;;19.36;27.05
55347;BME280;41218;55.700;38.270;2023-04-23T14:45:36;99699.84;;;19.29;27.10
55347;BME280;41218;55.700;38.270;2023-04-23T14:50:37;99696.81;;;19.19;27.40
55347;BME280;41218;55.700;38.270;2023-04-23T14:55:37;99692.56;;;19.11;27.64
55347;BME280;41218;55.700;38.270;2023-04-23T15:00:41;99693.50;;;19.05;27.71
55347;BME280;41218;55.700;38.270;2023-04-23T15:05:42;99685.78;;;18.89;27.84
55347;BME280;41218;55.700;38.270;2023-04-23T15:10:43;99695.53;;;18.80;27.75
55347;BME280;41218;55.700;38.270;2023-04-23T15:15:54;99693.19;;;18.75;28.04
55347;BME280;41218;55.700;38.270;2023-04-23T15:20:56;99687.38;;;18.66;28.32
55347;BME280;41218;55.700;38.270;2023-04-23T15:25:57;99694.63;;;18.64;28.32
55347;BME280;41218;55.700;38.270;2023-04-23T15:30:57;99694.38;;;18.54;28.01
55347;BME280;41218;55.700;38.270;2023-04-23T15:35:57;99699.50;;;18.59;28.50
55347;BME280;41218;55.700;38.270;2023-04-23T15:40:59;99687.50;;;18.35;28.88
55347;BME280;41218;55.700;38.270;2023-04-23T15:46:00;99693.25;;;18.25;29.66
55347;BME280;41218;55.700;38.270;2023-04-23T15:51:00;99700.16;;;18.16;30.01
55347;BME280;41218;55.700;38.270;2023-04-23T15:56:01;99702.91;;;18.20;29.97
55347;BME280;41218;55.700;38.270;2023-04-23T16:01:01;99703.25;;;17.98;30.90
55347;BME280;41218;55.700;38.270;2023-04-23T16:06:02;99703.66;;;17.97;30.76
55347;BME280;41218;55.700;38.270;2023-04-23T16:11:03;99704.78;;;17.72;31.59
55347;BME280;41218;55.700;38.270;2023-04-23T16:16:04;99702.41;;;17.71;31.50
55347;BME280;41218;55.700;38.270;2023-04-23T16:21:05;99703.50;;;17.46;32.35
55347;BME280;41218;55.700;38.270;2023-04-23T16:26:05;99713.13;;;17.41;32.25
55347;BME280;41218;55.700;38.270;2023-04-23T16:31:08;99701.97;;;17.07;33.01
55347;BME280;41218;55.700;38.270;2023-04-23T16:36:08;99727.47;;;17.09;32.67
55347;BME280;41218;55.700;38.270;2023-04-23T16:41:12;99722.56;;;16.79;33.66
55347;BME280;41218;55.700;38.270;2023-04-23T16:46:14;99738.63;;;16.64;34.26
55347;BME280;41218;55.700;38.270;2023-04-23T16:51:15;99739.06;;;16.59;33.86
55347;BME280;41218;55.700;38.270;2023-04-23T16:56:16;99745.25;;;16.32;34.60
55347;BME280;41218;55.700;38.270;2023-04-23T17:01:16;99746.97;;;16.12;34.99
55347;BME280;41218;55.700;38.270;2023-04-23T17:06:24;99751.06;;;15.89;35.85
55347;BME280;41218;55.700;38.270;2023-04-23T17:11:27;99759.91;;;15.77;35.88
55347;BME280;41218;55.700;38.270;2023-04-23T17:16:28;99753.19;;;15.56;36.06
55347;BME280;41218;55.700;38.270;2023-04-23T17:21:28;99771.16;;;15.41;36.28
55347;BME280;41218;55.700;38.270;2023-04-23T17:26:29;99761.63;;;15.20;36.48
55347;BME280;41218;55.700;38.270;2023-04-23T17:31:29;99769.63;;;15.08;36.61
55347;BME280;41218;55.700;38.270;2023-04-23T17:36:30;99762.09;;;14.87;36.72
55347;BME280;41218;55.700;38.270;2023-04-23T17:41:31;99774.81;;;14.73;37.18
55347;BME280;41218;55.700;38.270;2023-04-23T17:46:31;99779.97;;;14.57;37.31
55347;BME280;41218;55.700;38.270;2023-04-23T17:51:32;99779.53;;;14.37;37.32
55347;BME280;41218;55.700;38.270;2023-04-23T17:56:33;99784.28;;;14.22;37.56
55347;BME280;41218;55.700;38.270;2023-04-23T18:01:33;99789.41;;;14.06;38.04
55347;BME280;41218;55.700;38.270;2023-04-23T18:06:34;99802.03;;;13.92;37.89
55347;BME280;41218;55.700;38.270;2023-04-23T18:11:36;99794.41;;;13.68;38.23
55347;BME280;41218;55.700;38.270;2023-04-23T18:16:36;99802.72;;;13.60;38.33
55347;BME280;41218;55.700;38.270;2023-04-23T18:21:37;99807.75;;;13.44;38.43
55347;BME280;41218;55.700;38.270;2023-04-23T18:26:38;99806.00;;;13.21;38.74
55347;BME280;41218;55.700;38.270;2023-04-23T18:31:38;99818.25;;;13.13;39.06
55347;BME280;41218;55.700;38.270;2023-04-23T18:36:41;99807.84;;;12.96;39.54
55347;BME280;41218;55.700;38.270;2023-04-23T18:41:43;99802.88;;;12.71;39.49
55347;BME280;41218;55.700;38.270;2023-04-23T18:46:44;99832.16;;;12.69;39.52
55347;BME280;41218;55.700;38.270;2023-04-23T18:51:48;99823.00;;;12.65;39.32
55347;BME280;41218;55.700;38.270;2023-04-23T18:56:49;99822.00;;;12.42;39.73
55347;BME280;41218;55.700;38.270;2023-04-23T19:01:51;99811.50;;;12.21;40.22
55347;BME280;41218;55.700;38.270;2023-04-23T19:06:52;99818.94;;;12.14;39.99
55347;BME280;41218;55.700;38.270;2023-04-23T19:11:53;99821.91;;;11.98;40.40
55347;BME280;41218;55.700;38.270;2023-04-23T19:16:54;99822.13;;;11.86;40.42
55347;BME280;41218;55.700;38.270;2023-04-23T19:21:55;99831.09;;;11.75;40.38
55347;BME280;41218;55.700;38.270;2023-04-23T19:26:55;99820.19;;;11.59;40.67
55347;BME280;41218;55.700;38.270;2023-04-23T19:31:57;99826.81;;;11.51;40.79
55347;BME280;41218;55.700;38.270;2023-04-23T19:36:57;99822.31;;;11.39;41.05
55347;BME280;41218;55.700;38.270;2023-04-23T19:41:58;99824.91;;;11.29;41.22
55347;BME280;41218;55.700;38.270;2023-04-23T19:46:58;99826.31;;;11.15;41.34
55347;BME280;41218;55.700;38.270;2023-04-23T19:52:00;99817.84;;;11.05;41.38
55347;BME280;41218;55.700;38.270;2023-04-23T19:57:02;99821.16;;;10.91;41.80
55347;BME280;41218;55.700;38.270;2023-04-23T20:02:03;99826.97;;;10.82;41.75
55347;BME280;41218;55.700;38.270;2023-04-23T20:07:03;99832.69;;;10.70;41.78
55347;BME280;41218;55.700;38.270;2023-04-23T20:12:04;99828.09;;;10.54;42.15
55347;BME280;41218;55.700;38.270;2023-04-23T20:17:05;99822.34;;;10.43;41.98
55347;BME280;41218;55.700;38.270;2023-04-23T20:22:06;99832.47;;;10.36;42.35
55347;BME280;41218;55.700;38.270;2023-04-23T20:27:06;99824.31;;;10.23;42.44
55347;BME280;41218;55.700;38.270;2023-04-23T20:32:07;99828.09;;;10.15;42.48
55347;BME280;41218;55.700;38.270;2023-04-23T20:37:07;99837.78;;;10.06;42.48
55347;BME280;41218;55.700;38.270;2023-04-23T20:42:08;99832.47;;;9.97;42.62
55347;BME280;41218;55.700;38.270;2023-04-23T20:47:09;99832.25;;;9.86;42.90
55347;BME280;41218;55.700;38.270;2023-04-23T20:52:09;99839.94;;;9.77;42.76
55347;BME280;41218;55.700;38.270;2023-04-23T20:57:11;99839.28;;;9.64;43.35
55347;BME280;41218;55.700;38.270;2023-04-23T21:02:12;99838.34;;;9.56;43.01
55347;BME280;41218;55.700;38.270;2023-04-23T21:07:14;99823.25;;;9.34;43.49
55347;BME280;41218;55.700;38.270;2023-04-23T21:12:14;99832.28;;;9.31;43.44
55347;BME280;41218;55.700;38.270;2023-04-23T21:17:15;99847.94;;;9.27;43.70
55347;BME280;41218;55.700;38.270;2023-04-23T21:22:16;99842.09;;;9.13;43.33
55347;BME280;41218;55.700;38.270;2023-04-23T21:27:17;99849.47;;;9.09;43.84
55347;BME280;41218;55.700;38.270;2023-04-23T21:32:20;99844.84;;;8.97;43.75
55347;BME280;41218;55.700;38.270;2023-04-23T21:37:21;99850.28;;;8.93;43.87
55347;BME280;41218;55.700;38.270;2023-04-23T21:42:21;99857.13;;;8.83;44.27
55347;BME280;41218;55.700;38.270;2023-04-23T21:47:22;99843.31;;;8.68;43.93
55347;BME280;41218;55.700;38.270;2023-04-23T21:52:23;99837.09;;;8.55;44.35
55347;BME280;41218;55.700;38.270;2023-04-23T21:57:25;99854.44;;;8.55;44.56
55347;BME280;41218;55.700;38.270;2023-04-23T22:02:26;99844.97;;;8.40;44.78
55347;BME280;41218;55.700;38.270;2023-04-23T22:07:26;99860.38;;;8.41;44.62
55347;BME280;41218;55.700;38.270;2023-04-23T22:12:28;99862.78;;;8.31;44.63
55347;BME280;41218;55.700;38.270;2023-04-23T22:17:29;99846.22;;;8.15;45.02
55347;BME280;41218;55.700;38.270;2023-04-23T22:22:29;99856.78;;;8.13;44.86
55347;BME280;41218;55.700;38.270;2023-04-23T22:27:31;99871.63;;;8.08;45.20
55347;BME280;41218;55.700;38.270;2023-04-23T22:32:31;99871.44;;;8.01;45.18
55347;BME280;41218;55.700;38.270;2023-04-23T22:37:32;99860.53;;;7.92;45.74
55347;BME280;41218;55.700;38.270;2023-04-23T22:42:33;99859.41;;;7.93;45.33
55347;BME280;41218;55.700;38.270;2023-04-23T22:47:33;99859.34;;;7.77;45.21
55347;BME280;41218;55.700;38.270;2023-04-23T22:52:34;99869.31;;;7.70;45.63
55347;BME280;41218;55.700;38.270;2023-04-23T22:57:35;99870.72;;;7.63;45.94
55347;BME280;41218;55.700;38.270;2023-04-23T23:02:35;99869.69;;;7.56;45.71
55347;BME280;41218;55.700;38.270;2023-04-23T23:07:36;99877.41;;;7.50;45.93
55347;BME280;41218;55.700;38.270;2023-04-23T23:12:36;99868.59;;;7.45;45.95
55347;BME280;41218;55.700;38.270;2023-04-23T23:17:38;99869.06;;;7.34;46.51
55347;BME280;41218;55.700;38.270;2023-04-23T23:22:39;99872.81;;;7.30;46.51
55347;BME280;41218;55.700;38.270;2023-04-23T23:27:39;99865.50;;;7.21;46.70
55347;BME280;41218;55.700;38.270;2023-04-23T23:32:40;99859.00;;;7.14;46.50
55347;BME280;41218;55.700;38.270;2023-04-23T23:37:41;99872.28;;;7.12;46.91
55347;BME280;41218;55.700;38.270;2023-04-23T23:42:41;99871.69;;;7.06;46.54
55347;BME280;41218;55.700;38.270;2023-04-23T23:47:42;99874.19;;;6.99;47.07
55347;BME280;41218;55.700;38.270;2023-04-23T23:52:42;99877.19;;;6.94;46.97
55347;BME280;41218;55.700;38.270;2023-04-23T23:57:43;99878.56;;;6.88;47.18
